This is the latest recevied weather packets stored in our database for station/object DO1BDB-12. If no packets are shown the sender has not sent any weather packets the latest 10 day(s).
| Time | Temp. | Humidity | Pressure | Rain* | Wind** | Luminosity | Snow |
|---|---|---|---|---|---|---|---|
| 1777450172 | 21.67° C | 22% | 103.1 hPa | - | - | - | - |
| 1777450106 | 22.22° C | 22% | 103.1 hPa | - | - | - | - |
| 1777450040 | 20° C | 26% | 103.1 hPa | - | - | - | - |
| 1777449974 | 23.89° C | 21% | 103.1 hPa | - | - | - | - |
| 1777449908 | 22.22° C | 22% | 103.1 hPa | - | - | - | - |
| 1777449842 | 21.67° C | 24% | 103.1 hPa | - | - | - | - |
| 1777449776 | 18.89° C | 28% | 103.1 hPa | - | - | - | - |
| 1777449711 | 17.22° C | 28% | 103.1 hPa | - | - | - | - |
| 1777449645 | 21.67° C | 24% | 103.1 hPa | - | - | - | - |
| 1777449579 | 22.78° C | 24% | 103.1 hPa | - | - | - | - |
| 1777449513 | 22.78° C | 23% | 103.1 hPa | - | - | - | - |
| 1777449447 | 20.56° C | 25% | 103.1 hPa | - | - | - | - |
| 1777449382 | 20.56° C | 26% | 103.1 hPa | - | - | - | - |
| 1777449316 | 18.33° C | 28% | 103.1 hPa | - | - | - | - |
| 1777449250 | 21.67° C | 24% | 103.1 hPa | - | - | - | - |
| 1777449184 | 22.78° C | 23% | 103.1 hPa | - | - | - | - |
| 1777449118 | 22.78° C | 24% | 103.1 hPa | - | - | - | - |
| 1777449052 | 21.67° C | 26% | 103.1 hPa | - | - | - | - |
| 1777448986 | 19.44° C | 29% | 103.1 hPa | - | - | - | - |
| 1777448921 | 17.22° C | 32% | 103.1 hPa | - | - | - | - |
| 1777448855 | 18.33° C | 30% | 103.1 hPa | - | - | - | - |
| 1777448789 | 17.22° C | 30% | 103.1 hPa | - | - | - | - |
| 1777448723 | 18.89° C | 27% | 103.1 hPa | - | - | - | - |
| 1777448657 | 20° C | 25% | 103.1 hPa | - | - | - | - |
| 1777448591 | 20° C | 25% | 103.1 hPa | - | - | - | - |
* Rain since midnight (hover to see other rain measurements)
** Current wind speed in m/s (hover to see current wind gust speed)